Time;durP1;ratioP1;P1;durP2;ratioP2;P2;SDS_P1;SDS_P2;PMS_P1;PMS_P2;Temp;Humidity;BMP_temperature;BMP_pressure;BME280_temperature;BME280_humidity;BME280_pressure;Samples;Min_cycle;Max_cycle;Signal;HPM_P1;HPM_P2
2023/05/02 00:02:01;;;;;;;0.20;0.20;;;13.80;99.90;;;;;;4973156;28;20042;-87
2023/05/02 00:04:27;;;;;;;0.10;0.10;;;13.80;99.90;;;;;;4972241;28;20030;-87
2023/05/02 00:06:52;;;;;;;0.10;0.10;;;13.80;99.90;;;;;;4957165;28;20031;-87
2023/05/02 00:09:18;;;;;;;0.50;0.35;;;14.00;99.90;;;;;;4957488;29;20471;-88
2023/05/02 00:11:44;;;;;;;0.10;0.10;;;13.80;99.90;;;;;;4957897;29;20031;-87
2023/05/02 00:14:09;;;;;;;0.20;0.20;;;14.00;99.90;;;;;;4957976;29;20031;-87
2023/05/02 00:16:35;;;;;;;0.13;0.13;;;13.70;99.90;;;;;;4958208;29;20030;-89
2023/05/02 00:19:01;;;;;;;0.25;0.25;;;13.80;99.90;;;;;;4957833;29;20388;-87
2023/05/02 00:21:28;;;;;;;0.20;0.20;;;13.80;99.90;;;;;;4957892;29;20122;-87
2023/05/02 00:23:56;;;;;;;0.10;0.10;;;13.70;99.90;;;;;;4957278;29;20035;-86
2023/05/02 00:26:22;;;;;;;0.15;0.15;;;13.70;99.90;;;;;;4958796;29;20031;-87
2023/05/02 00:28:48;;;;;;;0.03;0.03;;;13.70;99.90;;;;;;4957636;29;20038;-87
2023/05/02 00:31:14;;;;;;;0.38;0.38;;;13.80;99.90;;;;;;4957573;29;20039;-87
2023/05/02 00:33:39;;;;;;;0.10;0.10;;;13.90;99.90;;;;;;4957618;29;20024;-87
2023/05/02 00:36:16;;;;;;;0.17;0.17;;;13.90;99.90;;;;;;4957400;28;20039;-87
2023/05/02 00:38:41;;;;;;;0.08;0.08;;;14.00;99.90;;;;;;4957388;29;20027;-87
2023/05/02 00:41:07;;;;;;;0.38;0.17;;;13.90;99.90;;;;;;4957274;29;20483;-87
2023/05/02 00:43:33;;;;;;;0.10;0.10;;;13.90;99.90;;;;;;4957296;29;20051;-86
2023/05/02 00:45:58;;;;;;;0.10;0.10;;;13.60;99.90;;;;;;4959632;28;20086;-87
2023/05/02 00:48:24;;;;;;;0.40;0.40;;;13.60;99.90;;;;;;4977037;28;20490;-87
2023/05/02 00:50:50;;;;;;;0.10;0.10;;;13.40;99.90;;;;;;4976807;28;20035;-88
2023/05/02 00:53:16;;;;;;;0.22;0.22;;;13.50;99.90;;;;;;4976113;28;20027;-87
2023/05/02 00:55:42;;;;;;;0.30;0.30;;;13.50;99.90;;;;;;4976489;28;20089;-87
2023/05/02 00:58:12;;;;;;;0.20;0.20;;;13.50;99.90;;;;;;4976867;28;20454;-87
2023/05/02 01:01:14;;;;;;;0.40;0.40;;;13.40;99.90;;;;;;4976347;28;20448;-86
2023/05/02 01:04:04;;;;;;;0.95;0.70;;;13.10;99.90;;;;;;4976588;28;20170;-86
2023/05/02 01:06:52;;;;;;;0.10;0.10;;;13.20;99.90;;;;;;4969943;28;20500;-88
2023/05/02 01:09:33;;;;;;;0.40;0.40;;;13.10;99.90;;;;;;4956928;29;20023;-87
2023/05/02 01:12:17;;;;;;;0.10;0.10;;;13.10;99.90;;;;;;4957640;29;20571;-86
2023/05/02 01:14:49;;;;;;;0.10;0.10;;;13.10;99.90;;;;;;4956842;29;20041;-87
2023/05/02 01:17:17;;;;;;;0.28;0.28;;;13.20;99.90;;;;;;4956698;28;20118;-87
2023/05/02 01:19:50;;;;;;;0.47;0.47;;;12.80;99.90;;;;;;4956650;29;20027;-86
2023/05/02 01:22:16;;;;;;;0.10;0.10;;;13.00;99.90;;;;;;4956597;29;20043;-87
2023/05/02 01:24:53;;;;;;;0.25;0.25;;;13.00;99.90;;;;;;4956674;29;20428;-87
2023/05/02 01:27:59;;;;;;;0.20;0.20;;;12.80;99.90;;;;;;4956599;29;20811;-87
2023/05/02 01:30:28;;;;;;;0.00;0.00;;;12.80;99.90;;;;;;4956014;29;20032;-86
2023/05/02 01:32:55;;;;;;;0.10;0.10;;;12.90;99.90;;;;;;4956499;29;20070;-87
2023/05/02 01:35:22;;;;;;;0.17;0.17;;;12.70;99.90;;;;;;4956458;29;20058;-87
2023/05/02 01:37:50;;;;;;;0.13;0.13;;;12.70;99.90;;;;;;4956360;28;20077;-87
2023/05/02 01:40:19;;;;;;;0.70;0.40;;;12.50;99.90;;;;;;4956461;29;20023;-87
2023/05/02 01:42:47;;;;;;;0.20;0.20;;;12.50;99.90;;;;;;4956137;29;20130;-86
2023/05/02 01:45:14;;;;;;;0.10;0.10;;;12.60;99.90;;;;;;4956377;29;20807;-86
2023/05/02 01:47:43;;;;;;;0.20;0.20;;;12.40;99.90;;;;;;4972287;28;20059;-87
2023/05/02 01:50:12;;;;;;;0.10;0.10;;;12.30;99.90;;;;;;4975596;28;20018;-87
2023/05/02 01:52:39;;;;;;;0.35;0.35;;;12.40;99.90;;;;;;4975398;28;20114;-87
2023/05/02 01:55:08;;;;;;;0.10;0.10;;;12.50;99.90;;;;;;4975781;28;20058;-87
2023/05/02 01:57:35;;;;;;;0.10;0.10;;;12.60;99.90;;;;;;4975451;28;20118;-87
2023/05/02 02:00:03;;;;;;;1.25;0.20;;;12.70;99.90;;;;;;4975161;28;20023;-87
2023/05/02 02:02:29;;;;;;;0.00;0.00;;;12.70;99.90;;;;;;4975340;28;20070;-87
2023/05/02 02:04:56;;;;;;;0.00;0.00;;;12.80;99.90;;;;;;4957483;28;20411;-87
2023/05/02 02:07:22;;;;;;;0.10;0.10;;;12.80;99.90;;;;;;4967210;28;20028;-87
2023/05/02 02:09:47;;;;;;;0.20;0.20;;;12.80;99.90;;;;;;4956098;29;20058;-87
2023/05/02 02:12:25;;;;;;;0.13;0.13;;;12.60;99.90;;;;;;4955865;29;20118;-86
2023/05/02 02:15:02;;;;;;;0.10;0.10;;;12.50;99.90;;;;;;4955736;29;20023;-87
2023/05/02 02:17:42;;;;;;;0.03;0.03;;;12.10;99.90;;;;;;4955767;29;20028;-87
2023/05/02 02:20:10;;;;;;;0.00;0.00;;;12.30;99.90;;;;;;4955922;29;20031;-88
2023/05/02 02:22:40;;;;;;;0.28;0.28;;;12.30;99.90;;;;;;4955434;29;20082;-87
2023/05/02 02:25:09;;;;;;;0.10;0.10;;;12.40;99.90;;;;;;4955401;29;20476;-87
2023/05/02 02:27:36;;;;;;;0.00;0.00;;;12.40;99.90;;;;;;4955593;29;20023;-87
2023/05/02 02:30:03;;;;;;;0.10;0.10;;;12.30;99.90;;;;;;4954872;28;20447;-87
2023/05/02 02:32:29;;;;;;;0.00;0.00;;;12.30;99.90;;;;;;4955703;29;20051;-87
2023/05/02 02:34:54;;;;;;;0.10;0.10;;;12.50;99.90;;;;;;4954990;29;20106;-87
2023/05/02 02:37:29;;;;;;;0.00;0.00;;;12.30;99.90;;;;;;4955232;28;20031;-87
2023/05/02 02:40:04;;;;;;;0.13;0.13;;;12.30;99.90;;;;;;4955178;29;20034;-87
2023/05/02 02:42:39;;;;;;;0.05;0.05;;;12.20;99.90;;;;;;4956040;29;20116;-87
2023/05/02 02:45:10;;;;;;;0.40;0.40;;;12.20;99.90;;;;;;4955320;29;20165;-87
2023/05/02 02:47:53;;;;;;;0.05;0.05;;;12.20;99.90;;;;;;4970566;28;20027;-88
2023/05/02 02:50:40;;;;;;;0.47;0.20;;;12.30;99.90;;;;;;4974013;28;20390;-87
2023/05/02 02:53:13;;;;;;;0.10;0.10;;;12.20;99.90;;;;;;4974292;28;20031;-87
2023/05/02 02:55:56;;;;;;;0.10;0.10;;;12.20;99.90;;;;;;4974340;28;20026;-87
2023/05/02 02:58:30;;;;;;;0.10;0.10;;;12.30;99.90;;;;;;4974180;28;20042;-87
2023/05/02 03:01:01;;;;;;;0.10;0.10;;;12.30;99.90;;;;;;4974413;28;20026;-87
2023/05/02 03:03:29;;;;;;;0.10;0.10;;;12.40;99.90;;;;;;4973866;28;20045;-87
2023/05/02 03:05:56;;;;;;;0.30;0.30;;;12.20;99.90;;;;;;4974422;28;20029;-87
2023/05/02 03:08:21;;;;;;;0.10;0.10;;;12.10;99.90;;;;;;4963434;28;20380;-87
2023/05/02 03:10:47;;;;;;;1.25;0.40;;;11.90;99.90;;;;;;4954773;29;20032;-87
2023/05/02 03:13:13;;;;;;;0.10;0.10;;;12.00;99.90;;;;;;4955077;29;20026;-87
2023/05/02 03:15:50;;;;;;;0.10;0.10;;;12.00;99.90;;;;;;4954707;29;20055;-87
2023/05/02 03:18:16;;;;;;;0.17;0.17;;;12.20;99.90;;;;;;4954145;29;20023;-87
2023/05/02 03:20:42;;;;;;;0.17;0.17;;;12.00;99.90;;;;;;4954589;29;20456;-87
2023/05/02 03:23:07;;;;;;;0.20;0.20;;;12.00;99.90;;;;;;4954817;29;20514;-87
2023/05/02 03:25:33;;;;;;;0.10;0.10;;;11.80;99.90;;;;;;4954593;29;20400;-87
2023/05/02 03:27:59;;;;;;;0.00;0.00;;;12.10;99.90;;;;;;4954509;29;20070;-88
2023/05/02 03:30:24;;;;;;;0.10;0.10;;;12.20;99.90;;;;;;4954589;29;20063;-87
2023/05/02 03:32:51;;;;;;;0.28;0.28;;;12.00;99.90;;;;;;4954869;29;20110;-87
2023/05/02 03:35:17;;;;;;;0.10;0.10;;;12.00;99.90;;;;;;4954426;29;20050;-87
2023/05/02 03:37:43;;;;;;;0.80;0.22;;;12.00;99.90;;;;;;4954146;28;20059;-87
2023/05/02 03:40:09;;;;;;;0.17;0.17;;;11.90;99.90;;;;;;4953783;29;20027;-87
2023/05/02 03:42:40;;;;;;;0.05;0.05;;;11.90;99.90;;;;;;4953860;29;20043;-87
2023/05/02 03:45:06;;;;;;;0.28;0.28;;;11.90;99.90;;;;;;4954086;29;20086;-87
2023/05/02 03:47:32;;;;;;;0.10;0.10;;;11.90;99.90;;;;;;4968571;28;20227;-87
2023/05/02 03:49:58;;;;;;;0.00;0.00;;;11.80;99.90;;;;;;4973402;28;20089;-87
2023/05/02 03:52:24;;;;;;;0.30;0.30;;;11.90;99.90;;;;;;4973263;28;20106;-88
2023/05/02 03:54:50;;;;;;;0.10;0.10;;;11.80;99.90;;;;;;4973483;28;20034;-88
2023/05/02 03:57:16;;;;;;;0.10;0.10;;;12.00;99.90;;;;;;4973368;28;20109;-88
2023/05/02 03:59:44;;;;;;;0.30;0.30;;;12.00;99.90;;;;;;4973780;28;20035;-87
2023/05/02 04:02:10;;;;;;;0.47;0.47;;;12.00;99.90;;;;;;4972980;28;20034;-87
2023/05/02 04:04:36;;;;;;;0.70;0.60;;;11.80;99.90;;;;;;4973181;28;20031;-87
2023/05/02 04:07:02;;;;;;;3.15;0.75;;;11.70;99.90;;;;;;4973271;28;20034;-87
2023/05/02 04:09:27;;;;;;;0.30;0.30;;;11.80;99.90;;;;;;4955747;28;20024;-87
2023/05/02 04:11:53;;;;;;;0.10;0.10;;;11.80;99.90;;;;;;4936584;29;20380;-87
2023/05/02 04:14:19;;;;;;;0.10;0.10;;;11.80;99.90;;;;;;4954049;29;20098;-87
2023/05/02 04:16:51;;;;;;;0.25;0.25;;;11.70;99.90;;;;;;4953425;29;20031;-87
2023/05/02 04:19:19;;;;;;;0.10;0.10;;;11.90;99.90;;;;;;4953862;29;20019;-88
2023/05/02 04:21:45;;;;;;;0.10;0.10;;;11.90;99.90;;;;;;4953954;29;20514;-88
2023/05/02 04:24:12;;;;;;;0.38;0.35;;;11.80;99.90;;;;;;4954277;29;20051;-88
2023/05/02 04:26:37;;;;;;;0.80;0.55;;;11.70;99.90;;;;;;4953812;29;20042;-88
2023/05/02 04:29:03;;;;;;;0.20;0.20;;;11.70;99.90;;;;;;4936468;29;20573;-88
2023/05/02 04:31:30;;;;;;;0.10;0.10;;;11.70;99.90;;;;;;4953483;29;20041;-87
2023/05/02 04:33:56;;;;;;;0.77;0.57;;;11.80;99.90;;;;;;4954528;29;20094;-87
2023/05/02 04:36:22;;;;;;;0.30;0.30;;;11.90;99.90;;;;;;4953650;29;20494;-87
2023/05/02 04:38:48;;;;;;;0.40;0.40;;;12.00;99.90;;;;;;4953903;28;20028;-87
2023/05/02 04:41:14;;;;;;;0.05;0.05;;;12.10;99.90;;;;;;4953620;29;20090;-87
2023/05/02 04:43:40;;;;;;;0.50;0.50;;;12.00;99.90;;;;;;4953500;29;20114;-87
2023/05/02 04:46:05;;;;;;;0.20;0.20;;;12.10;99.90;;;;;;4956513;28;20022;-87
2023/05/02 04:48:32;;;;;;;2.33;0.70;;;12.10;99.90;;;;;;4972947;28;20031;-87
2023/05/02 04:50:58;;;;;;;0.45;0.40;;;11.90;99.90;;;;;;4973194;28;20495;-87
2023/05/02 04:53:23;;;;;;;0.15;0.15;;;11.80;99.90;;;;;;4975832;28;20062;-88
2023/05/02 04:55:49;;;;;;;0.05;0.05;;;12.00;99.90;;;;;;4976453;28;20081;-87
2023/05/02 04:58:15;;;;;;;1.27;0.55;;;11.90;99.90;;;;;;4976507;28;20467;-87
2023/05/02 05:00:40;;;;;;;0.30;0.30;;;11.90;99.90;;;;;;4975794;28;20547;-88
2023/05/02 05:03:06;;;;;;;0.38;0.38;;;11.80;99.90;;;;;;4976240;28;20038;-88
2023/05/02 05:05:32;;;;;;;0.13;0.13;;;11.90;99.90;;;;;;4976549;28;20122;-88
2023/05/02 05:07:58;;;;;;;0.60;0.22;;;11.90;99.90;;;;;;4971117;28;20210;-87
2023/05/02 05:10:24;;;;;;;0.10;0.10;;;11.90;99.90;;;;;;4956941;29;20109;-87
2023/05/02 05:12:49;;;;;;;0.10;0.10;;;11.70;99.90;;;;;;4956755;29;20038;-87
2023/05/02 05:15:15;;;;;;;0.32;0.32;;;11.90;99.90;;;;;;4956475;29;20034;-87
2023/05/02 05:17:41;;;;;;;0.28;0.28;;;12.00;99.90;;;;;;4957079;29;20031;-87
2023/05/02 05:20:09;;;;;;;0.30;0.30;;;11.80;99.90;;;;;;4956608;29;20153;-87
2023/05/02 05:22:41;;;;;;;1.15;0.55;;;11.90;99.90;;;;;;4957244;29;20126;-88
2023/05/02 05:25:07;;;;;;;0.40;0.30;;;11.90;99.90;;;;;;4956696;29;20526;-87
2023/05/02 05:27:34;;;;;;;0.20;0.20;;;12.10;99.90;;;;;;4956923;29;20034;-87
2023/05/02 05:29:59;;;;;;;0.10;0.10;;;12.20;99.90;;;;;;4956183;29;20027;-87
2023/05/02 05:32:25;;;;;;;0.25;0.25;;;12.10;99.90;;;;;;4956605;29;20023;-86
2023/05/02 05:34:52;;;;;;;0.10;0.10;;;12.00;99.90;;;;;;4956923;29;20090;-87
2023/05/02 05:37:18;;;;;;;0.30;0.30;;;12.20;99.90;;;;;;4956239;28;20030;-87
2023/05/02 05:39:44;;;;;;;0.15;0.15;;;12.20;99.90;;;;;;4956444;29;20059;-87
2023/05/02 05:42:09;;;;;;;0.50;0.50;;;12.10;99.90;;;;;;4939685;29;20070;-87
2023/05/02 05:44:35;;;;;;;1.50;0.85;;;12.30;99.90;;;;;;4955809;29;20067;-87
2023/05/02 05:47:01;;;;;;;0.28;0.28;;;12.20;99.90;;;;;;4966834;28;20062;-87
2023/05/02 05:49:27;;;;;;;0.45;0.45;;;12.30;99.90;;;;;;4976061;28;20065;-87
2023/05/02 05:51:52;;;;;;;0.57;0.43;;;12.40;99.90;;;;;;4975257;28;20031;-87
2023/05/02 05:54:18;;;;;;;0.15;0.15;;;12.50;99.90;;;;;;4975506;28;20525;-88
2023/05/02 05:56:44;;;;;;;0.57;0.57;;;12.50;99.90;;;;;;4975316;28;20395;-87
2023/05/02 05:59:10;;;;;;;0.30;0.30;;;12.40;99.90;;;;;;4975148;28;20026;-87
2023/05/02 06:01:36;;;;;;;0.25;0.25;;;12.30;99.90;;;;;;4975339;28;20035;-87
2023/05/02 06:04:03;;;;;;;0.68;0.30;;;12.30;99.90;;;;;;4974276;28;20042;-87
2023/05/02 06:06:30;;;;;;;0.15;0.15;;;12.50;99.90;;;;;;4975612;28;20054;-87
2023/05/02 06:08:56;;;;;;;0.10;0.10;;;12.50;99.90;;;;;;4962120;28;20516;-87
2023/05/02 06:11:23;;;;;;;1.25;0.28;;;12.70;99.90;;;;;;4955332;29;20038;-87
2023/05/02 06:13:52;;;;;;;0.17;0.17;;;12.70;99.90;;;;;;4955656;29;20032;-87
2023/05/02 06:16:18;;;;;;;0.35;0.35;;;12.60;99.90;;;;;;4956017;29;20035;-87
2023/05/02 06:18:45;;;;;;;0.68;0.47;;;12.70;99.90;;;;;;4955647;29;20035;-87
2023/05/02 06:21:10;;;;;;;0.40;0.40;;;12.70;99.90;;;;;;4955670;29;20049;-87
2023/05/02 06:23:36;;;;;;;0.40;0.40;;;12.70;99.90;;;;;;4955590;29;20515;-87
2023/05/02 06:26:03;;;;;;;0.17;0.17;;;12.70;99.90;;;;;;4937883;29;20034;-81
2023/05/02 06:28:29;;;;;;;0.22;0.22;;;12.70;99.90;;;;;;4957473;29;20035;-82
2023/05/02 06:31:03;;;;;;;0.20;0.20;;;12.90;99.90;;;;;;4956888;29;20027;-79
2023/05/02 06:33:30;;;;;;;0.30;0.30;;;12.90;99.90;;;;;;4955443;29;20027;-79
2023/05/02 06:35:56;;;;;;;0.52;0.52;;;13.00;99.90;;;;;;4955700;29;20034;-79
2023/05/02 06:38:23;;;;;;;0.57;0.57;;;13.00;99.90;;;;;;4955757;28;20034;-80
2023/05/02 06:40:49;;;;;;;0.57;0.57;;;13.20;99.90;;;;;;4955064;29;20563;-80
2023/05/02 06:43:15;;;;;;;0.28;0.28;;;13.20;99.90;;;;;;4955219;29;20067;-80
2023/05/02 06:45:41;;;;;;;0.38;0.38;;;13.20;99.90;;;;;;4955234;29;20019;-81
2023/05/02 06:48:07;;;;;;;0.15;0.15;;;13.30;99.90;;;;;;4974381;28;20041;-80
2023/05/02 06:50:33;;;;;;;0.45;0.45;;;13.20;99.90;;;;;;4974432;28;20030;-80
2023/05/02 06:52:59;;;;;;;0.77;0.63;;;13.20;99.90;;;;;;4974635;28;20403;-80
2023/05/02 06:55:25;;;;;;;0.50;0.50;;;13.40;99.90;;;;;;4973932;28;20026;-80
2023/05/02 06:57:51;;;;;;;0.28;0.28;;;13.20;99.90;;;;;;4974271;28;20094;-80
2023/05/02 07:00:18;;;;;;;0.30;0.30;;;13.20;99.90;;;;;;4974325;28;20030;-81
2023/05/02 07:02:45;;;;;;;0.10;0.10;;;13.20;99.90;;;;;;4974157;28;20030;-81
2023/05/02 07:05:11;;;;;;;0.25;0.25;;;13.30;99.90;;;;;;4974098;28;20050;-80
2023/05/02 07:07:37;;;;;;;0.25;0.25;;;13.60;99.90;;;;;;4974236;28;20027;-80
2023/05/02 07:10:03;;;;;;;0.10;0.10;;;13.70;99.90;;;;;;4959409;28;20027;-80
2023/05/02 07:12:29;;;;;;;0.68;0.68;;;13.40;99.90;;;;;;4954470;29;20027;-81
2023/05/02 07:14:55;;;;;;;0.30;0.30;;;13.40;99.90;;;;;;4954986;28;20031;-80
2023/05/02 07:17:20;;;;;;;0.60;0.57;;;13.50;99.90;;;;;;4954564;29;20059;-80
2023/05/02 07:19:46;;;;;;;0.88;0.55;;;13.70;99.90;;;;;;4954604;29;20050;-80
2023/05/02 07:22:11;;;;;;;0.28;0.28;;;13.70;99.90;;;;;;4954675;29;20050;-80
2023/05/02 07:24:41;;;;;;;0.25;0.25;;;13.60;99.90;;;;;;4954104;29;20032;-80
2023/05/02 07:27:08;;;;;;;0.45;0.45;;;13.70;99.90;;;;;;4937294;29;20384;-80
2023/05/02 07:29:34;;;;;;;7.72;0.82;;;13.90;99.90;;;;;;4954418;29;20447;-80
2023/05/02 07:32:00;;;;;;;1.02;0.93;;;13.80;99.90;;;;;;4954817;29;20019;-80
2023/05/02 07:34:25;;;;;;;0.20;0.20;;;13.90;99.90;;;;;;4954400;29;20034;-80
2023/05/02 07:36:51;;;;;;;0.40;0.30;;;14.00;99.90;;;;;;4955296;29;20034;-80
2023/05/02 07:39:17;;;;;;;0.35;0.35;;;14.10;99.90;;;;;;4953966;28;20031;-80
2023/05/02 07:41:43;;;;;;;0.85;0.85;;;14.00;99.90;;;;;;4954237;29;20041;-80
2023/05/02 07:44:08;;;;;;;0.85;0.60;;;14.10;99.90;;;;;;4954193;29;20126;-80
2023/05/02 07:46:34;;;;;;;0.65;0.57;;;14.20;99.90;;;;;;4961309;28;20142;-80
2023/05/02 07:49:00;;;;;;;0.30;0.30;;;14.20;99.90;;;;;;4973908;28;20030;-80
2023/05/02 07:51:25;;;;;;;0.28;0.28;;;13.90;99.90;;;;;;4973524;28;20031;-80
2023/05/02 07:53:57;;;;;;;0.43;0.43;;;13.90;99.90;;;;;;4973032;28;20395;-80
2023/05/02 07:56:23;;;;;;;0.60;0.60;;;14.00;99.90;;;;;;4973418;28;20442;-80
2023/05/02 07:58:50;;;;;;;0.28;0.28;;;14.00;99.90;;;;;;4973458;28;20055;-80
2023/05/02 08:01:16;;;;;;;0.30;0.30;;;14.30;99.90;;;;;;4973185;28;20546;-80
2023/05/02 08:03:42;;;;;;;0.57;0.30;;;14.50;99.90;;;;;;4973560;28;20027;-80
2023/05/02 08:06:08;;;;;;;0.52;0.52;;;14.60;99.90;;;;;;4973396;28;20391;-80
2023/05/02 08:08:34;;;;;;;0.20;0.20;;;14.60;99.90;;;;;;4973204;28;20490;-80
2023/05/02 08:11:00;;;;;;;1.65;0.73;;;14.70;99.90;;;;;;4962114;28;20023;-80
2023/05/02 08:13:26;;;;;;;0.68;0.68;;;14.90;99.90;;;;;;4954248;29;20118;-80
2023/05/02 08:15:56;;;;;;;0.75;0.45;;;14.80;99.90;;;;;;4954048;29;20063;-80
2023/05/02 08:18:23;;;;;;;0.43;0.43;;;14.90;99.90;;;;;;4954237;29;20031;-80
2023/05/02 08:20:49;;;;;;;0.73;0.57;;;15.00;99.90;;;;;;4954272;29;20030;-80
2023/05/02 08:23:15;;;;;;;0.45;0.43;;;15.10;99.90;;;;;;4953339;29;20039;-80
2023/05/02 08:25:41;;;;;;;0.20;0.20;;;15.50;99.90;;;;;;4953924;29;20119;-80
2023/05/02 08:28:07;;;;;;;0.17;0.17;;;15.60;99.90;;;;;;4956550;28;20035;-80
2023/05/02 08:30:33;;;;;;;0.10;0.10;;;15.80;99.90;;;;;;4958099;29;20059;-80
2023/05/02 08:32:58;;;;;;;0.45;0.43;;;16.10;99.90;;;;;;4957633;29;20419;-80
2023/05/02 08:35:24;;;;;;;0.30;0.30;;;15.70;99.90;;;;;;4957549;29;20395;-80
2023/05/02 08:37:50;;;;;;;0.30;0.30;;;15.50;99.90;;;;;;4958362;29;20031;-80
2023/05/02 08:40:16;;;;;;;0.05;0.05;;;15.40;99.90;;;;;;4958110;29;20035;-80
2023/05/02 08:42:43;;;;;;;0.57;0.57;;;15.30;99.90;;;;;;4957484;29;20043;-80
2023/05/02 08:45:11;;;;;;;0.30;0.30;;;15.50;99.90;;;;;;4957685;29;20055;-80
2023/05/02 08:47:39;;;;;;;1.65;0.85;;;15.90;99.90;;;;;;4972396;28;20034;-81
2023/05/02 08:50:05;;;;;;;0.30;0.30;;;16.20;99.90;;;;;;4976946;28;20074;-80
2023/05/02 08:52:32;;;;;;;1.20;0.90;;;16.60;99.90;;;;;;4976127;28;20399;-80
2023/05/02 08:55:00;;;;;;;0.30;0.30;;;16.60;99.90;;;;;;4976678;28;20027;-81
2023/05/02 08:57:28;;;;;;;0.20;0.20;;;16.80;99.90;;;;;;4975726;28;20106;-83
2023/05/02 08:59:54;;;;;;;0.50;0.50;;;16.90;99.90;;;;;;4957187;29;20094;-80
2023/05/02 09:02:34;;;;;;;0.40;0.40;;;16.90;99.90;;;;;;4957242;29;20475;-80
2023/05/02 09:05:05;;;;;;;0.63;0.50;;;16.60;99.90;;;;;;4958389;28;20070;-80
2023/05/02 09:07:45;;;;;;;0.50;0.50;;;16.60;99.90;;;;;;4959083;29;20106;-80
2023/05/02 09:10:11;;;;;;;0.30;0.30;;;16.60;99.90;;;;;;4968862;28;20498;-81
2023/05/02 09:12:36;;;;;;;0.73;0.73;;;16.80;99.90;;;;;;4975689;28;20034;-81
2023/05/02 09:15:14;;;;;;;0.50;0.50;;;17.10;99.90;;;;;;4959069;28;20031;-81
2023/05/02 09:17:44;;;;;;;0.32;0.32;;;16.90;99.90;;;;;;4966683;28;20026;-84
2023/05/02 09:20:14;;;;;;;0.10;0.10;;;17.00;99.90;;;;;;4973338;28;20026;-82
2023/05/02 09:22:52;;;;;;;0.85;0.55;;;17.10;99.90;;;;;;4964077;28;20038;-81
2023/05/02 09:25:19;;;;;;;0.10;0.10;;;17.10;99.90;;;;;;4975516;28;20569;-82
2023/05/02 09:27:52;;;;;;;0.60;0.60;;;17.30;99.90;;;;;;4962718;28;20045;-81
2023/05/02 09:30:20;;;;;;;1.05;0.55;;;17.40;99.90;;;;;;4975605;28;20512;-81
2023/05/02 09:32:49;;;;;;;0.70;0.40;;;17.40;99.90;;;;;;4966843;28;20435;-81
2023/05/02 09:35:22;;;;;;;0.45;0.28;;;17.60;99.90;;;;;;4958592;28;20046;-81
2023/05/02 09:37:55;;;;;;;0.73;0.50;;;17.80;99.90;;;;;;4951333;28;20030;-81
2023/05/02 09:40:22;;;;;;;0.50;0.50;;;17.70;99.90;;;;;;4956240;28;20075;-80
2023/05/02 09:42:47;;;;;;;0.22;0.22;;;17.50;99.90;;;;;;4958015;28;20118;-82
2023/05/02 09:45:21;;;;;;;0.10;0.10;;;17.60;99.90;;;;;;4971616;28;20067;-82
2023/05/02 09:47:47;;;;;;;0.30;0.30;;;17.80;99.90;;;;;;4960628;28;20031;-81
2023/05/02 09:50:34;;;;;;;0.38;0.32;;;18.10;99.90;;;;;;4975226;28;20106;-82
2023/05/02 09:53:05;;;;;;;0.28;0.28;;;18.40;99.90;;;;;;4950852;28;20434;-81
2023/05/02 09:55:31;;;;;;;0.50;0.50;;;18.30;99.90;;;;;;4962110;28;20038;-82
2023/05/02 09:57:57;;;;;;;0.52;0.50;;;18.30;99.90;;;;;;4956378;29;20023;-82
2023/05/02 10:00:43;;;;;;;0.57;0.52;;;18.50;99.90;;;;;;4956916;28;20039;-82
2023/05/02 10:03:10;;;;;;;0.65;0.65;;;18.30;99.90;;;;;;4973262;28;20038;-82
2023/05/02 10:05:37;;;;;;;0.38;0.38;;;18.00;99.90;;;;;;4974879;28;20110;-82
2023/05/02 10:08:07;;;;;;;0.10;0.10;;;18.10;99.90;;;;;;4960362;28;20035;-82
2023/05/02 10:10:36;;;;;;;0.60;0.60;;;18.50;99.90;;;;;;4956148;28;20452;-82
2023/05/02 10:13:03;;;;;;;0.40;0.40;;;18.70;99.90;;;;;;4957325;28;20460;-82
2023/05/02 10:15:30;;;;;;;0.88;0.80;;;18.70;99.90;;;;;;4955677;28;20116;-82
2023/05/02 10:18:01;;;;;;;0.98;0.30;;;18.50;99.90;;;;;;4955216;29;20039;-83
2023/05/02 10:20:35;;;;;;;0.40;0.40;;;18.40;99.90;;;;;;4972745;28;20027;-82
2023/05/02 10:23:02;;;;;;;0.32;0.32;;;18.60;99.90;;;;;;4960800;28;20122;-82
2023/05/02 10:25:28;;;;;;;2.67;0.93;;;18.60;99.90;;;;;;4955635;29;20023;-82
2023/05/02 10:27:57;;;;;;;0.40;0.40;;;18.80;99.90;;;;;;4956280;28;20039;-82
2023/05/02 10:30:23;;;;;;;0.60;0.50;;;18.80;99.90;;;;;;4955844;29;20122;-82
2023/05/02 10:32:52;;;;;;;0.25;0.25;;;19.00;99.90;;;;;;4966013;28;20541;-82
2023/05/02 10:35:18;;;;;;;0.32;0.30;;;19.10;99.90;;;;;;4971608;28;20038;-82
2023/05/02 10:37:46;;;;;;;0.43;0.43;;;19.80;99.90;;;;;;4974420;28;20422;-82
2023/05/02 10:40:12;;;;;;;0.15;0.15;;;19.90;99.90;;;;;;4970023;28;20380;-82
2023/05/02 10:42:44;;;;;;;0.43;0.43;;;19.80;99.90;;;;;;4974637;28;20027;-82
2023/05/02 10:45:31;;;;;;;0.90;0.65;;;19.70;99.90;;;;;;4972669;28;20074;-82
2023/05/02 10:48:21;;;;;;;0.40;0.40;;;19.60;99.90;;;;;;4968595;28;20038;-86
2023/05/02 10:50:48;;;;;;;0.10;0.10;;;19.70;99.90;;;;;;4967948;28;20053;-83
2023/05/02 10:53:28;;;;;;;6.60;0.60;;;19.90;99.90;;;;;;4971620;28;20063;-83
2023/05/02 10:56:15;;;;;;;0.35;0.32;;;19.80;99.90;;;;;;4966358;28;20106;-82
2023/05/02 10:58:42;;;;;;;0.20;0.20;;;19.40;99.90;;;;;;4963343;28;20388;-83
2023/05/02 11:01:27;;;;;;;0.55;0.55;;;19.40;99.90;;;;;;4954760;29;20023;-80
2023/05/02 11:04:02;;;;;;;0.47;0.30;;;19.40;99.90;;;;;;4955052;28;20469;-82
2023/05/02 11:06:33;;;;;;;0.30;0.30;;;19.60;99.90;;;;;;4964180;28;20065;-80
2023/05/02 11:09:14;;;;;;;0.60;0.55;;;20.20;99.90;;;;;;4961370;28;20098;-80
2023/05/02 11:11:42;;;;;;;0.95;0.75;;;20.40;99.90;;;;;;4962524;28;20038;-81
2023/05/02 11:14:09;;;;;;;0.85;0.75;;;20.60;99.90;;;;;;4963531;28;20023;-80
2023/05/02 11:17:07;;;;;;;0.15;0.15;;;21.00;99.90;;;;;;4960361;28;20057;-81
2023/05/02 11:19:45;;;;;;;0.88;0.75;;;21.90;99.90;;;;;;4876084;29;20033;-81
2023/05/02 11:22:26;;;;;;;0.30;0.30;;;22.10;99.90;;;;;;4877133;29;20491;-81
2023/05/02 11:24:53;;;;;;;0.45;0.35;;;22.60;99.90;;;;;;4876769;29;20025;-81
2023/05/02 11:27:30;;;;;;;0.20;0.20;;;22.80;99.90;;;;;;4876729;29;20474;-81
2023/05/02 11:29:56;;;;;;;0.88;0.17;;;22.60;99.90;;;;;;4876808;29;20033;-81
2023/05/02 11:32:22;;;;;;;0.38;0.38;;;21.90;99.90;;;;;;4876291;29;20391;-81
2023/05/02 11:34:51;;;;;;;0.30;0.30;;;21.60;99.90;;;;;;4876616;29;20057;-81
2023/05/02 11:37:19;;;;;;;0.63;0.55;;;21.40;99.90;;;;;;4877140;29;20059;-81
2023/05/02 11:39:45;;;;;;;0.20;0.20;;;21.60;99.90;;;;;;4877845;29;20108;-81
2023/05/02 11:42:31;;;;;;;0.30;0.25;;;21.00;99.90;;;;;;4895399;29;20151;-81
2023/05/02 11:44:58;;;;;;;0.57;0.25;;;20.60;99.90;;;;;;4894414;29;20105;-81
2023/05/02 11:47:26;;;;;;;0.57;0.40;;;20.60;99.90;;;;;;4895046;29;20032;-81
2023/05/02 11:49:55;;;;;;;0.35;0.35;;;20.60;99.90;;;;;;4894986;29;20029;-81
2023/05/02 11:52:22;;;;;;;0.50;0.50;;;21.40;99.90;;;;;;4895523;29;20112;-81
2023/05/02 11:54:49;;;;;;;0.25;0.25;;;20.70;99.90;;;;;;4917024;29;20062;-81
2023/05/02 11:57:14;;;;;;;0.45;0.20;;;20.60;99.90;;;;;;4954157;29;20035;-81
2023/05/02 11:59:53;;;;;;;0.57;0.57;;;20.60;99.90;;;;;;4936511;29;20107;-81
2023/05/02 12:02:34;;;;;;;0.22;0.22;;;20.60;99.90;;;;;;4953178;28;20130;-81
2023/05/02 12:05:00;;;;;;;0.85;0.70;;;20.30;99.90;;;;;;4954356;29;20027;-81
2023/05/02 12:07:47;;;;;;;0.20;0.20;;;20.40;99.90;;;;;;4954136;29;20027;-81
2023/05/02 12:10:14;;;;;;;1.67;1.25;;;20.50;99.90;;;;;;4954283;29;20499;-81
2023/05/02 12:12:42;;;;;;;0.22;0.22;;;21.80;99.90;;;;;;4954018;29;20412;-81
2023/05/02 12:15:09;;;;;;;0.20;0.20;;;22.00;99.90;;;;;;4969117;28;20027;-81
2023/05/02 12:17:41;;;;;;;0.30;0.30;;;21.60;99.90;;;;;;4973330;28;20085;-81
2023/05/02 12:20:08;;;;;;;0.28;0.28;;;22.30;99.90;;;;;;4973637;28;20535;-81
2023/05/02 12:22:34;;;;;;;1.30;0.95;;;23.50;99.90;;;;;;4972959;28;20101;-81
2023/05/02 12:25:02;;;;;;;0.25;0.22;;;24.70;99.90;;;;;;4973052;28;20030;-81
2023/05/02 12:27:28;;;;;;;0.75;0.35;;;25.10;99.90;;;;;;4973202;28;20031;-81
2023/05/02 12:29:56;;;;;;;1.23;0.70;;;25.00;99.90;;;;;;4972992;28;20062;-81
2023/05/02 12:32:30;;;;;;;0.40;0.40;;;24.20;99.90;;;;;;4973216;28;20097;-81
2023/05/02 12:34:56;;;;;;;0.90;0.63;;;23.50;99.90;;;;;;4973002;28;20039;-81
2023/05/02 12:37:25;;;;;;;0.25;0.25;;;25.20;99.90;;;;;;4973256;28;20027;-80
2023/05/02 12:39:55;;;;;;;0.20;0.20;;;25.20;99.90;;;;;;4973549;28;20443;-79
2023/05/02 12:42:23;;;;;;;3.13;0.20;;;26.20;99.90;;;;;;4972743;28;20098;-79
2023/05/02 12:44:52;;;;;;;0.30;0.30;;;27.20;99.90;;;;;;4972607;28;20046;-79
2023/05/02 12:47:21;;;;;;;1.38;0.52;;;26.70;99.90;;;;;;4972825;28;20494;-79
2023/05/02 12:49:51;;;;;;;0.65;0.65;;;26.50;99.90;;;;;;4972984;28;20027;-79
2023/05/02 12:52:21;;;;;;;0.30;0.30;;;26.40;99.90;;;;;;4973446;28;20023;-79
2023/05/02 12:54:47;;;;;;;0.43;0.43;;;26.50;99.90;;;;;;4972994;28;20023;-80
2023/05/02 12:57:25;;;;;;;0.20;0.20;;;26.00;99.90;;;;;;4972511;28;20133;-79